Decoded Metar for UMMS (MINSK 2 in BELARUS) (IATA:MSQ) | Meteo·Mobile Aviation Weather
aviador You're here:

UMMS Decoded Metar

MINSK 2 in BELARUS
Report Time2019-10-21 07:00:00
UTC Time2019-10-21 07:09:06
Flight Rules ifr IFR
Wind200° at 2 kt
W.Decomp.*RWY 13: 0.9 kt HW 1.8 kt RCW
Visibility4700 m
Phenomena:Mist
Clouds:N/A
Expected CloudBase > 400 ft AGL from Temp-Dew spread
CeilingNone
Temp11°C (ISA -3)
Dew Point10°C (94% RH)
AAT10.3°C
QNH1019 hPa
Density Alt322 ft
Elevation673 ft
Report Wrong Elevation
Raw Report
METAR UMMS 210700Z 20001MPS 4700 BR NSC 11/10 Q1019 R88/CLRD// NOSIG=

Extra information for UMMS:More info

Metar Taf Metar & Taf Last 4 Metars F.Rules Stats Wind Profile Meteogram Temp Stats Airport Information Weather charts Add Link Nearby VenuesMetar ALERT Operation Metar Decoded Social comments